sensor_id;sensor_type;location;lat;lon;timestamp;pressure;altitude;pressure_sealevel;temperature;humidity
30554;BME280;17335;50.720;7.452;2023-11-19T00:01:44;98914.66;;;9.07;100.00
30554;BME280;17335;50.720;7.452;2023-11-19T00:04:11;98922.69;;;9.07;100.00
30554;BME280;17335;50.720;7.452;2023-11-19T00:06:37;98911.16;;;9.07;100.00
30554;BME280;17335;50.720;7.452;2023-11-19T00:09:04;98926.94;;;9.10;100.00
30554;BME280;17335;50.720;7.452;2023-11-19T00:11:32;98915.22;;;9.11;100.00
30554;BME280;17335;50.720;7.452;2023-11-19T00:13:58;98915.34;;;9.09;100.00
30554;BME280;17335;50.720;7.452;2023-11-19T00:16:25;98909.84;;;9.11;100.00
30554;BME280;17335;50.720;7.452;2023-11-19T00:18:52;98900.56;;;9.15;100.00
30554;BME280;17335;50.720;7.452;2023-11-19T00:21:18;98903.09;;;9.16;100.00
30554;BME280;17335;50.720;7.452;2023-11-19T00:27:26;98883.47;;;9.16;100.00
30554;BME280;17335;50.720;7.452;2023-11-19T00:29:52;98877.44;;;9.14;100.00
30554;BME280;17335;50.720;7.452;2023-11-19T00:32:42;98881.28;;;9.11;100.00
30554;BME280;17335;50.720;7.452;2023-11-19T00:35:08;98887.06;;;9.07;100.00
30554;BME280;17335;50.720;7.452;2023-11-19T00:38:09;98869.53;;;9.12;100.00
30554;BME280;17335;50.720;7.452;2023-11-19T00:40:36;98865.88;;;9.13;100.00
30554;BME280;17335;50.720;7.452;2023-11-19T00:43:36;98856.00;;;9.14;100.00
30554;BME280;17335;50.720;7.452;2023-11-19T00:49:23;98847.88;;;9.06;100.00
30554;BME280;17335;50.720;7.452;2023-11-19T00:55:30;98854.78;;;9.08;100.00
30554;BME280;17335;50.720;7.452;2023-11-19T00:58:13;98848.88;;;9.05;100.00
30554;BME280;17335;50.720;7.452;2023-11-19T01:00:40;98870.00;;;9.08;100.00
30554;BME280;17335;50.720;7.452;2023-11-19T01:03:06;98866.75;;;9.04;100.00
30554;BME280;17335;50.720;7.452;2023-11-19T01:05:33;98863.78;;;9.07;100.00
30554;BME280;17335;50.720;7.452;2023-11-19T01:08:00;98872.50;;;9.09;100.00
30554;BME280;17335;50.720;7.452;2023-11-19T01:10:26;98868.16;;;9.08;100.00
30554;BME280;17335;50.720;7.452;2023-11-19T01:12:53;98875.38;;;9.08;100.00
30554;BME280;17335;50.720;7.452;2023-11-19T01:15:20;98859.53;;;9.14;100.00
30554;BME280;17335;50.720;7.452;2023-11-19T01:17:47;98859.22;;;9.17;100.00
30554;BME280;17335;50.720;7.452;2023-11-19T01:20:16;98858.41;;;9.17;100.00
30554;BME280;17335;50.720;7.452;2023-11-19T01:22:43;98848.53;;;9.17;100.00
30554;BME280;17335;50.720;7.452;2023-11-19T01:25:10;98857.09;;;9.21;100.00
30554;BME280;17335;50.720;7.452;2023-11-19T01:27:36;98849.75;;;9.23;100.00
30554;BME280;17335;50.720;7.452;2023-11-19T01:30:03;98847.94;;;9.24;100.00
30554;BME280;17335;50.720;7.452;2023-11-19T01:32:32;98846.09;;;9.24;100.00
30554;BME280;17335;50.720;7.452;2023-11-19T01:34:59;98841.56;;;9.25;100.00
30554;BME280;17335;50.720;7.452;2023-11-19T01:37:25;98830.44;;;9.29;100.00
30554;BME280;17335;50.720;7.452;2023-11-19T01:39:52;98837.47;;;9.30;100.00
30554;BME280;17335;50.720;7.452;2023-11-19T01:42:21;98840.16;;;9.30;100.00
30554;BME280;17335;50.720;7.452;2023-11-19T01:45:01;98839.16;;;9.31;100.00
30554;BME280;17335;50.720;7.452;2023-11-19T01:47:28;98842.22;;;9.36;100.00
30554;BME280;17335;50.720;7.452;2023-11-19T01:49:57;98829.09;;;9.43;100.00
30554;BME280;17335;50.720;7.452;2023-11-19T01:52:25;98828.25;;;9.43;100.00
30554;BME280;17335;50.720;7.452;2023-11-19T01:54:53;98840.63;;;9.44;100.00
30554;BME280;17335;50.720;7.452;2023-11-19T01:57:22;98836.38;;;9.51;100.00
30554;BME280;17335;50.720;7.452;2023-11-19T01:59:51;98836.69;;;9.48;100.00
30554;BME280;17335;50.720;7.452;2023-11-19T02:02:18;98825.91;;;9.57;100.00
30554;BME280;17335;50.720;7.452;2023-11-19T02:04:49;98833.47;;;9.62;100.00
30554;BME280;17335;50.720;7.452;2023-11-19T02:07:17;98833.22;;;9.55;100.00
30554;BME280;17335;50.720;7.452;2023-11-19T02:09:44;98832.34;;;9.65;100.00
30554;BME280;17335;50.720;7.452;2023-11-19T02:12:11;98840.38;;;9.65;100.00
30554;BME280;17335;50.720;7.452;2023-11-19T02:14:41;98828.97;;;9.63;100.00
30554;BME280;17335;50.720;7.452;2023-11-19T02:17:27;98839.31;;;9.57;100.00
30554;BME280;17335;50.720;7.452;2023-11-19T02:19:54;98831.19;;;9.67;100.00
30554;BME280;17335;50.720;7.452;2023-11-19T02:22:21;98840.22;;;9.66;100.00
30554;BME280;17335;50.720;7.452;2023-11-19T02:24:49;98849.56;;;9.62;100.00
30554;BME280;17335;50.720;7.452;2023-11-19T02:27:45;98845.34;;;9.60;100.00
30554;BME280;17335;50.720;7.452;2023-11-19T02:30:11;98837.69;;;9.65;100.00
30554;BME280;17335;50.720;7.452;2023-11-19T02:32:42;98831.31;;;9.66;100.00
30554;BME280;17335;50.720;7.452;2023-11-19T02:35:08;98808.91;;;9.67;100.00
30554;BME280;17335;50.720;7.452;2023-11-19T02:37:38;98807.16;;;9.75;100.00
30554;BME280;17335;50.720;7.452;2023-11-19T02:40:05;98812.22;;;9.79;100.00
30554;BME280;17335;50.720;7.452;2023-11-19T02:42:35;98805.69;;;9.81;100.00
30554;BME280;17335;50.720;7.452;2023-11-19T02:45:02;98799.94;;;9.76;100.00
30554;BME280;17335;50.720;7.452;2023-11-19T02:47:29;98803.47;;;9.76;100.00
30554;BME280;17335;50.720;7.452;2023-11-19T02:49:56;98804.47;;;9.75;100.00
30554;BME280;17335;50.720;7.452;2023-11-19T02:52:24;98797.25;;;9.76;100.00
30554;BME280;17335;50.720;7.452;2023-11-19T02:54:51;98799.34;;;9.82;100.00
30554;BME280;17335;50.720;7.452;2023-11-19T02:57:19;98800.81;;;9.76;100.00
30554;BME280;17335;50.720;7.452;2023-11-19T02:59:48;98808.91;;;9.85;100.00
30554;BME280;17335;50.720;7.452;2023-11-19T03:02:15;98809.91;;;9.84;100.00
30554;BME280;17335;50.720;7.452;2023-11-19T03:04:42;98813.81;;;9.89;100.00
30554;BME280;17335;50.720;7.452;2023-11-19T03:07:12;98818.09;;;10.00;100.00
30554;BME280;17335;50.720;7.452;2023-11-19T03:09:39;98805.69;;;9.99;100.00
30554;BME280;17335;50.720;7.452;2023-11-19T03:12:07;98799.47;;;9.99;100.00
30554;BME280;17335;50.720;7.452;2023-11-19T03:14:33;98787.91;;;9.98;100.00
30554;BME280;17335;50.720;7.452;2023-11-19T03:17:03;98798.94;;;9.95;100.00
30554;BME280;17335;50.720;7.452;2023-11-19T03:19:31;98789.38;;;9.92;100.00
30554;BME280;17335;50.720;7.452;2023-11-19T03:21:58;98801.09;;;9.91;100.00
30554;BME280;17335;50.720;7.452;2023-11-19T03:35:24;98788.53;;;9.92;100.00
30554;BME280;17335;50.720;7.452;2023-11-19T03:37:51;98782.84;;;9.95;100.00
30554;BME280;17335;50.720;7.452;2023-11-19T03:40:18;98788.44;;;10.02;100.00
30554;BME280;17335;50.720;7.452;2023-11-19T03:42:46;98789.75;;;9.98;100.00
30554;BME280;17335;50.720;7.452;2023-11-19T03:45:13;98779.56;;;10.01;100.00
30554;BME280;17335;50.720;7.452;2023-11-19T03:47:39;98765.16;;;10.02;100.00
30554;BME280;17335;50.720;7.452;2023-11-19T03:50:06;98775.78;;;10.12;100.00
30554;BME280;17335;50.720;7.452;2023-11-19T03:52:35;98768.00;;;10.01;100.00
30554;BME280;17335;50.720;7.452;2023-11-19T03:55:09;98770.53;;;10.02;100.00
30554;BME280;17335;50.720;7.452;2023-11-19T03:57:36;98764.16;;;10.03;100.00
30554;BME280;17335;50.720;7.452;2023-11-19T04:00:03;98766.84;;;10.03;100.00
30554;BME280;17335;50.720;7.452;2023-11-19T04:02:36;98768.38;;;10.06;100.00
30554;BME280;17335;50.720;7.452;2023-11-19T04:05:03;98761.78;;;10.00;100.00
30554;BME280;17335;50.720;7.452;2023-11-19T04:07:31;98772.34;;;10.02;100.00
30554;BME280;17335;50.720;7.452;2023-11-19T04:09:58;98771.59;;;10.09;100.00
30554;BME280;17335;50.720;7.452;2023-11-19T04:12:25;98768.53;;;10.04;100.00
30554;BME280;17335;50.720;7.452;2023-11-19T04:14:52;98770.19;;;10.05;100.00
30554;BME280;17335;50.720;7.452;2023-11-19T04:17:22;98772.28;;;10.11;100.00
30554;BME280;17335;50.720;7.452;2023-11-19T04:19:49;98776.63;;;10.12;100.00
30554;BME280;17335;50.720;7.452;2023-11-19T04:22:16;98769.59;;;10.11;100.00
30554;BME280;17335;50.720;7.452;2023-11-19T04:24:42;98775.84;;;10.20;100.00
30554;BME280;17335;50.720;7.452;2023-11-19T04:27:11;98780.75;;;10.25;100.00
30554;BME280;17335;50.720;7.452;2023-11-19T04:29:38;98781.91;;;10.22;100.00
30554;BME280;17335;50.720;7.452;2023-11-19T04:32:05;98771.09;;;10.32;100.00
30554;BME280;17335;50.720;7.452;2023-11-19T04:34:32;98776.47;;;10.32;100.00
30554;BME280;17335;50.720;7.452;2023-11-19T04:36:58;98773.69;;;10.24;100.00
30554;BME280;17335;50.720;7.452;2023-11-19T04:39:39;98775.06;;;10.28;100.00
30554;BME280;17335;50.720;7.452;2023-11-19T04:42:05;98769.94;;;10.35;100.00
30554;BME280;17335;50.720;7.452;2023-11-19T04:44:33;98776.16;;;10.35;100.00
30554;BME280;17335;50.720;7.452;2023-11-19T04:46:59;98778.13;;;10.33;100.00
30554;BME280;17335;50.720;7.452;2023-11-19T04:52:38;98778.13;;;10.33;100.00
30554;BME280;17335;50.720;7.452;2023-11-19T04:55:12;98777.69;;;10.38;100.00
30554;BME280;17335;50.720;7.452;2023-11-19T04:57:40;98777.53;;;10.39;100.00
30554;BME280;17335;50.720;7.452;2023-11-19T05:00:07;98780.50;;;10.36;100.00
30554;BME280;17335;50.720;7.452;2023-11-19T05:06:17;98775.06;;;10.28;100.00
30554;BME280;17335;50.720;7.452;2023-11-19T05:08:44;98771.09;;;10.32;100.00
30554;BME280;17335;50.720;7.452;2023-11-19T05:11:11;98778.75;;;10.27;100.00
30554;BME280;17335;50.720;7.452;2023-11-19T05:13:38;98779.91;;;10.42;100.00
30554;BME280;17335;50.720;7.452;2023-11-19T05:16:05;98783.50;;;10.33;100.00
30554;BME280;17335;50.720;7.452;2023-11-19T05:18:32;98793.94;;;10.36;100.00
30554;BME280;17335;50.720;7.452;2023-11-19T05:20:58;98792.84;;;10.47;100.00
30554;BME280;17335;50.720;7.452;2023-11-19T05:23:25;98799.50;;;10.43;100.00
30554;BME280;17335;50.720;7.452;2023-11-19T05:25:51;98801.88;;;10.46;100.00
30554;BME280;17335;50.720;7.452;2023-11-19T05:28:18;98788.47;;;10.46;100.00
30554;BME280;17335;50.720;7.452;2023-11-19T05:30:44;98792.94;;;10.37;100.00
30554;BME280;17335;50.720;7.452;2023-11-19T05:33:11;98792.16;;;10.27;100.00
30554;BME280;17335;50.720;7.452;2023-11-19T05:35:38;98795.84;;;10.26;100.00
30554;BME280;17335;50.720;7.452;2023-11-19T05:38:04;98802.81;;;10.19;100.00
30554;BME280;17335;50.720;7.452;2023-11-19T05:40:32;98793.34;;;10.06;100.00
30554;BME280;17335;50.720;7.452;2023-11-19T05:42:59;98788.28;;;10.03;100.00
30554;BME280;17335;50.720;7.452;2023-11-19T05:45:26;98785.47;;;9.87;100.00
30554;BME280;17335;50.720;7.452;2023-11-19T05:47:52;98786.91;;;9.81;100.00
30554;BME280;17335;50.720;7.452;2023-11-19T05:50:19;98788.84;;;9.71;100.00
30554;BME280;17335;50.720;7.452;2023-11-19T05:52:46;98795.06;;;9.71;100.00
30554;BME280;17335;50.720;7.452;2023-11-19T05:55:12;98791.38;;;9.72;100.00
30554;BME280;17335;50.720;7.452;2023-11-19T05:57:40;98799.94;;;9.76;100.00
30554;BME280;17335;50.720;7.452;2023-11-19T06:00:10;98802.84;;;9.83;100.00
30554;BME280;17335;50.720;7.452;2023-11-19T06:02:39;98804.84;;;9.81;100.00
30554;BME280;17335;50.720;7.452;2023-11-19T06:05:06;98805.47;;;9.92;100.00
30554;BME280;17335;50.720;7.452;2023-11-19T06:07:33;98803.63;;;9.93;100.00
30554;BME280;17335;50.720;7.452;2023-11-19T06:10:02;98800.25;;;9.91;100.00
30554;BME280;17335;50.720;7.452;2023-11-19T06:12:29;98799.09;;;9.93;100.00
30554;BME280;17335;50.720;7.452;2023-11-19T06:14:56;98799.72;;;9.87;100.00
30554;BME280;17335;50.720;7.452;2023-11-19T06:17:23;98805.69;;;9.99;100.00
30554;BME280;17335;50.720;7.452;2023-11-19T06:19:49;98809.88;;;10.02;100.00
30554;BME280;17335;50.720;7.452;2023-11-19T06:22:16;98811.75;;;10.01;100.00
30554;BME280;17335;50.720;7.452;2023-11-19T06:24:42;98806.47;;;10.09;100.00
30554;BME280;17335;50.720;7.452;2023-11-19T06:27:11;98807.06;;;10.21;100.00
30554;BME280;17335;50.720;7.452;2023-11-19T06:29:39;98800.47;;;10.34;100.00
30554;BME280;17335;50.720;7.452;2023-11-19T06:32:07;98794.97;;;10.43;100.00
30554;BME280;17335;50.720;7.452;2023-11-19T06:34:37;98800.72;;;10.48;100.00
30554;BME280;17335;50.720;7.452;2023-11-19T06:37:04;98794.81;;;10.45;100.00
30554;BME280;17335;50.720;7.452;2023-11-19T06:39:31;98800.94;;;10.55;100.00
30554;BME280;17335;50.720;7.452;2023-11-19T06:41:57;98806.63;;;10.52;100.00
30554;BME280;17335;50.720;7.452;2023-11-19T06:44:24;98807.34;;;10.62;100.00
30554;BME280;17335;50.720;7.452;2023-11-19T06:46:51;98812.19;;;10.59;100.00
30554;BME280;17335;50.720;7.452;2023-11-19T06:49:17;98814.63;;;10.70;100.00
30554;BME280;17335;50.720;7.452;2023-11-19T06:51:47;98827.31;;;10.60;100.00
30554;BME280;17335;50.720;7.452;2023-11-19T06:54:14;98835.66;;;10.57;100.00
30554;BME280;17335;50.720;7.452;2023-11-19T06:56:40;98826.25;;;10.53;100.00
30554;BME280;17335;50.720;7.452;2023-11-19T06:59:08;98835.41;;;10.68;100.00
30554;BME280;17335;50.720;7.452;2023-11-19T07:01:36;98832.16;;;10.56;100.00
30554;BME280;17335;50.720;7.452;2023-11-19T07:04:03;98835.00;;;10.55;100.00
30554;BME280;17335;50.720;7.452;2023-11-19T07:06:35;98835.94;;;10.45;100.00
30554;BME280;17335;50.720;7.452;2023-11-19T07:09:05;98841.38;;;10.36;100.00
30554;BME280;17335;50.720;7.452;2023-11-19T07:11:41;98849.50;;;10.26;100.00
30554;BME280;17335;50.720;7.452;2023-11-19T07:14:08;98839.84;;;10.15;100.00
30554;BME280;17335;50.720;7.452;2023-11-19T07:16:35;98829.03;;;10.25;100.00
30554;BME280;17335;50.720;7.452;2023-11-19T07:19:04;98836.38;;;10.23;100.00
30554;BME280;17335;50.720;7.452;2023-11-19T07:21:31;98817.06;;;10.19;100.00
30554;BME280;17335;50.720;7.452;2023-11-19T07:23:59;98821.31;;;10.22;100.00
30554;BME280;17335;50.720;7.452;2023-11-19T07:26:26;98828.97;;;10.17;100.00
30554;BME280;17335;50.720;7.452;2023-11-19T07:28:53;98840.00;;;10.13;100.00
30554;BME280;17335;50.720;7.452;2023-11-19T07:31:20;98842.94;;;10.02;100.00
30554;BME280;17335;50.720;7.452;2023-11-19T07:33:46;98841.91;;;10.03;100.00
30554;BME280;17335;50.720;7.452;2023-11-19T07:36:14;98845.81;;;10.09;100.00
30554;BME280;17335;50.720;7.452;2023-11-19T07:38:40;98848.97;;;10.04;100.00
30554;BME280;17335;50.720;7.452;2023-11-19T07:41:07;98851.41;;;10.16;100.00
30554;BME280;17335;50.720;7.452;2023-11-19T07:43:36;98857.69;;;10.24;100.00
30554;BME280;17335;50.720;7.452;2023-11-19T07:46:03;98852.53;;;10.31;100.00
30554;BME280;17335;50.720;7.452;2023-11-19T07:48:30;98846.97;;;10.42;100.00
30554;BME280;17335;50.720;7.452;2023-11-19T07:50:57;98854.09;;;10.51;100.00
30554;BME280;17335;50.720;7.452;2023-11-19T07:53:24;98850.03;;;10.47;100.00
30554;BME280;17335;50.720;7.452;2023-11-19T07:55:51;98840.34;;;10.55;100.00
30554;BME280;17335;50.720;7.452;2023-11-19T07:58:17;98833.66;;;10.59;100.00
30554;BME280;17335;50.720;7.452;2023-11-19T08:00:44;98832.31;;;10.55;100.00
30554;BME280;17335;50.720;7.452;2023-11-19T08:03:10;98830.44;;;10.55;100.00
30554;BME280;17335;50.720;7.452;2023-11-19T08:05:37;98831.31;;;10.56;100.00
30554;BME280;17335;50.720;7.452;2023-11-19T08:08:04;98835.19;;;10.61;100.00
30554;BME280;17335;50.720;7.452;2023-11-19T08:10:31;98830.06;;;10.68;100.00
30554;BME280;17335;50.720;7.452;2023-11-19T08:13:00;98823.34;;;10.72;100.00
30554;BME280;17335;50.720;7.452;2023-11-19T08:15:27;98839.16;;;10.75;100.00
30554;BME280;17335;50.720;7.452;2023-11-19T08:17:57;98844.69;;;10.74;100.00
30554;BME280;17335;50.720;7.452;2023-11-19T08:20:24;98834.97;;;10.81;100.00
30554;BME280;17335;50.720;7.452;2023-11-19T08:22:50;98853.00;;;10.88;100.00
30554;BME280;17335;50.720;7.452;2023-11-19T08:25:17;98858.06;;;11.00;100.00
30554;BME280;17335;50.720;7.452;2023-11-19T08:27:44;98848.97;;;10.93;100.00
30554;BME280;17335;50.720;7.452;2023-11-19T08:30:12;98853.72;;;10.99;100.00
30554;BME280;17335;50.720;7.452;2023-11-19T08:32:38;98856.94;;;11.02;100.00
30554;BME280;17335;50.720;7.452;2023-11-19T08:35:05;98878.94;;;11.06;100.00
30554;BME280;17335;50.720;7.452;2023-11-19T08:37:33;98878.63;;;11.09;100.00
30554;BME280;17335;50.720;7.452;2023-11-19T08:39:59;98866.56;;;11.13;100.00
30554;BME280;17335;50.720;7.452;2023-11-19T08:42:27;98858.66;;;11.12;100.00
30554;BME280;17335;50.720;7.452;2023-11-19T08:44:54;98865.16;;;11.01;100.00
30554;BME280;17335;50.720;7.452;2023-11-19T08:47:21;98864.69;;;11.05;100.00
30554;BME280;17335;50.720;7.452;2023-11-19T08:49:52;98861.06;;;10.97;100.00
30554;BME280;17335;50.720;7.452;2023-11-19T08:52:22;98860.44;;;11.03;100.00
30554;BME280;17335;50.720;7.452;2023-11-19T08:54:48;98870.22;;;11.04;100.00
30554;BME280;17335;50.720;7.452;2023-11-19T08:57:15;98874.56;;;11.05;100.00
30554;BME280;17335;50.720;7.452;2023-11-19T08:59:41;98869.09;;;11.15;100.00
30554;BME280;17335;50.720;7.452;2023-11-19T09:02:08;98858.84;;;11.18;100.00
30554;BME280;17335;50.720;7.452;2023-11-19T09:04:35;98863.91;;;11.21;100.00
30554;BME280;17335;50.720;7.452;2023-11-19T09:07:02;98862.56;;;11.25;100.00
30554;BME280;17335;50.720;7.452;2023-11-19T09:09:31;98861.53;;;11.18;100.00
30554;BME280;17335;50.720;7.452;2023-11-19T09:12:02;98854.31;;;11.19;100.00
30554;BME280;17335;50.720;7.452;2023-11-19T09:14:30;98854.09;;;11.12;100.00
30554;BME280;17335;50.720;7.452;2023-11-19T09:16:57;98854.44;;;11.09;100.00
30554;BME280;17335;50.720;7.452;2023-11-19T09:19:24;98855.91;;;11.03;100.00
30554;BME280;17335;50.720;7.452;2023-11-19T09:21:53;98849.09;;;11.09;100.00
30554;BME280;17335;50.720;7.452;2023-11-19T09:24:20;98845.00;;;11.05;100.00
30554;BME280;17335;50.720;7.452;2023-11-19T09:26:47;98862.47;;;11.01;100.00
30554;BME280;17335;50.720;7.452;2023-11-19T09:29:13;98860.44;;;11.03;100.00
30554;BME280;17335;50.720;7.452;2023-11-19T09:31:41;98857.28;;;11.07;100.00
30554;BME280;17335;50.720;7.452;2023-11-19T09:34:07;98864.19;;;11.10;100.00
30554;BME280;17335;50.720;7.452;2023-11-19T09:36:35;98859.69;;;11.19;100.00
30554;BME280;17335;50.720;7.452;2023-11-19T09:39:02;98854.31;;;11.19;100.00
30554;BME280;17335;50.720;7.452;2023-11-19T09:41:33;98865.56;;;11.22;100.00
30554;BME280;17335;50.720;7.452;2023-11-19T09:44:01;98861.22;;;11.21;100.00
30554;BME280;17335;50.720;7.452;2023-11-19T09:46:28;98861.75;;;11.25;100.00
30554;BME280;17335;50.720;7.452;2023-11-19T09:48:55;98856.88;;;11.29;100.00
30554;BME280;17335;50.720;7.452;2023-11-19T09:51:24;98858.44;;;11.31;100.00
30554;BME280;17335;50.720;7.452;2023-11-19T09:54:08;98842.66;;;11.36;100.00
30554;BME280;17335;50.720;7.452;2023-11-19T09:56:37;98846.03;;;11.47;100.00
30554;BME280;17335;50.720;7.452;2023-11-19T10:02:46;98837.16;;;11.54;100.00
30554;BME280;17335;50.720;7.452;2023-11-19T10:09:02;98840.56;;;11.64;100.00
30554;BME280;17335;50.720;7.452;2023-11-19T10:15:21;98832.34;;;11.74;100.00
30554;BME280;17335;50.720;7.452;2023-11-19T10:17:56;98837.56;;;11.84;100.00
30554;BME280;17335;50.720;7.452;2023-11-19T10:20:23;98824.84;;;11.94;100.00
30554;BME280;17335;50.720;7.452;2023-11-19T10:22:53;98824.19;;;12.00;100.00
30554;BME280;17335;50.720;7.452;2023-11-19T10:25:29;98827.03;;;11.99;100.00
30554;BME280;17335;50.720;7.452;2023-11-19T10:36:50;98823.84;;;12.12;100.00
30554;BME280;17335;50.720;7.452;2023-11-19T10:47:10;98833.59;;;12.13;100.00
30554;BME280;17335;50.720;7.452;2023-11-19T10:49:38;98822.00;;;12.04;100.00
30554;BME280;17335;50.720;7.452;2023-11-19T10:52:05;98819.31;;;12.12;100.00
30554;BME280;17335;50.720;7.452;2023-11-19T10:54:32;98823.19;;;12.26;100.00
30554;BME280;17335;50.720;7.452;2023-11-19T10:57:01;98833.25;;;12.32;100.00
30554;BME280;17335;50.720;7.452;2023-11-19T11:07:02;98823.84;;;12.36;100.00
30554;BME280;17335;50.720;7.452;2023-11-19T11:09:31;98826.53;;;12.36;100.00
30554;BME280;17335;50.720;7.452;2023-11-19T11:11:58;98818.63;;;12.27;100.00
30554;BME280;17335;50.720;7.452;2023-11-19T11:18:13;98824.84;;;12.11;100.00
30554;BME280;17335;50.720;7.452;2023-11-19T11:20:40;98824.69;;;12.21;100.00
30554;BME280;17335;50.720;7.452;2023-11-19T11:30:00;98812.91;;;12.38;100.00
30554;BME280;17335;50.720;7.452;2023-11-19T11:33:06;98809.53;;;12.36;100.00
30554;BME280;17335;50.720;7.452;2023-11-19T11:35:52;98816.44;;;12.47;100.00
30554;BME280;17335;50.720;7.452;2023-11-19T11:38:23;98803.16;;;12.45;100.00
30554;BME280;17335;50.720;7.452;2023-11-19T11:55:17;98799.28;;;12.31;100.00
30554;BME280;17335;50.720;7.452;2023-11-19T11:57:43;98810.88;;;12.32;100.00
30554;BME280;17335;50.720;7.452;2023-11-19T12:00:11;98822.34;;;12.17;100.00
30554;BME280;17335;50.720;7.452;2023-11-19T12:03:13;98832.56;;;11.97;100.00
30554;BME280;17335;50.720;7.452;2023-11-19T12:05:44;98825.47;;;11.80;100.00
30554;BME280;17335;50.720;7.452;2023-11-19T12:15:00;98851.88;;;11.34;100.00
30554;BME280;17335;50.720;7.452;2023-11-19T12:20:05;98857.97;;;11.10;100.00
30554;BME280;17335;50.720;7.452;2023-11-19T12:22:39;98867.00;;;11.00;100.00
30554;BME280;17335;50.720;7.452;2023-11-19T12:25:06;98851.72;;;11.01;100.00
30554;BME280;17335;50.720;7.452;2023-11-19T12:27:33;98829.19;;;10.94;100.00
30554;BME280;17335;50.720;7.452;2023-11-19T12:30:03;98826.34;;;10.95;100.00
30554;BME280;17335;50.720;7.452;2023-11-19T12:32:43;98834.06;;;10.98;100.00
30554;BME280;17335;50.720;7.452;2023-11-19T12:35:11;98825.50;;;10.95;100.00
30554;BME280;17335;50.720;7.452;2023-11-19T12:37:41;98821.66;;;10.97;100.00
30554;BME280;17335;50.720;7.452;2023-11-19T12:40:15;98817.44;;;10.95;100.00
30554;BME280;17335;50.720;7.452;2023-11-19T12:42:45;98818.59;;;10.92;100.00
30554;BME280;17335;50.720;7.452;2023-11-19T12:45:13;98809.75;;;11.00;100.00
30554;BME280;17335;50.720;7.452;2023-11-19T12:47:40;98811.47;;;11.09;100.00
30554;BME280;17335;50.720;7.452;2023-11-19T12:50:08;98800.72;;;11.09;100.00
30554;BME280;17335;50.720;7.452;2023-11-19T12:52:36;98801.25;;;11.13;100.00
30554;BME280;17335;50.720;7.452;2023-11-19T12:55:04;98810.81;;;11.15;100.00
30554;BME280;17335;50.720;7.452;2023-11-19T12:57:42;98823.22;;;11.08;100.00
30554;BME280;17335;50.720;7.452;2023-11-19T13:00:19;98815.78;;;11.02;100.00
30554;BME280;17335;50.720;7.452;2023-11-19T13:02:55;98808.38;;;10.96;100.00
30554;BME280;17335;50.720;7.452;2023-11-19T13:05:30;98798.28;;;10.89;100.00
30554;BME280;17335;50.720;7.452;2023-11-19T13:10:26;98797.59;;;10.87;100.00
30554;BME280;17335;50.720;7.452;2023-11-19T13:13:07;98802.66;;;10.91;100.00
30554;BME280;17335;50.720;7.452;2023-11-19T13:15:35;98804.16;;;10.85;100.00
30554;BME280;17335;50.720;7.452;2023-11-19T13:18:02;98804.34;;;10.92;100.00
30554;BME280;17335;50.720;7.452;2023-11-19T13:20:29;98816.41;;;10.87;100.00
30554;BME280;17335;50.720;7.452;2023-11-19T13:25:23;98818.03;;;10.80;100.00
30554;BME280;17335;50.720;7.452;2023-11-19T13:27:49;98818.34;;;10.77;100.00
30554;BME280;17335;50.720;7.452;2023-11-19T13:30:16;98831.41;;;10.72;100.00
30554;BME280;17335;50.720;7.452;2023-11-19T13:32:46;98822.00;;;10.68;100.00
30554;BME280;17335;50.720;7.452;2023-11-19T13:35:12;98800.31;;;10.61;100.00
30554;BME280;17335;50.720;7.452;2023-11-19T13:37:39;98806.34;;;10.63;100.00
30554;BME280;17335;50.720;7.452;2023-11-19T13:40:07;98820.00;;;10.70;100.00
30554;BME280;17335;50.720;7.452;2023-11-19T13:42:37;98812.19;;;10.59;100.00
30554;BME280;17335;50.720;7.452;2023-11-19T13:45:11;98807.16;;;10.56;100.00
30554;BME280;17335;50.720;7.452;2023-11-19T13:47:40;98822.09;;;10.58;100.00
30554;BME280;17335;50.720;7.452;2023-11-19T13:50:12;98809.19;;;10.62;100.00
30554;BME280;17335;50.720;7.452;2023-11-19T13:52:42;98801.00;;;10.63;100.00
30554;BME280;17335;50.720;7.452;2023-11-19T13:55:09;98795.69;;;10.72;100.00
30554;BME280;17335;50.720;7.452;2023-11-19T13:57:38;98797.19;;;10.74;100.00
30554;BME280;17335;50.720;7.452;2023-11-19T14:00:06;98800.22;;;10.71;100.00
30554;BME280;17335;50.720;7.452;2023-11-19T14:02:37;98794.47;;;10.66;100.00
30554;BME280;17335;50.720;7.452;2023-11-19T14:05:04;98794.84;;;10.71;100.00
30554;BME280;17335;50.720;7.452;2023-11-19T14:07:32;98794.19;;;10.77;100.00
30554;BME280;17335;50.720;7.452;2023-11-19T14:09:58;98781.22;;;10.73;100.00
30554;BME280;17335;50.720;7.452;2023-11-19T14:12:25;98778.75;;;10.79;100.00
30554;BME280;17335;50.720;7.452;2023-11-19T14:14:51;98777.09;;;10.78;100.00
30554;BME280;17335;50.720;7.452;2023-11-19T14:17:18;98777.81;;;10.88;100.00
30554;BME280;17335;50.720;7.452;2023-11-19T14:19:45;98779.16;;;10.93;100.00
30554;BME280;17335;50.720;7.452;2023-11-19T14:22:11;98776.84;;;10.98;100.00
30554;BME280;17335;50.720;7.452;2023-11-19T14:24:38;98771.78;;;10.95;100.00
30554;BME280;17335;50.720;7.452;2023-11-19T14:27:07;98769.41;;;10.83;100.00
30554;BME280;17335;50.720;7.452;2023-11-19T14:29:33;98772.03;;;10.75;100.00
30554;BME280;17335;50.720;7.452;2023-11-19T14:32:00;98765.38;;;10.87;100.00
30554;BME280;17335;50.720;7.452;2023-11-19T14:34:27;98760.97;;;10.78;100.00
30554;BME280;17335;50.720;7.452;2023-11-19T14:36:54;98769.25;;;10.85;100.00
30554;BME280;17335;50.720;7.452;2023-11-19T14:39:21;98766.56;;;10.85;100.00
30554;BME280;17335;50.720;7.452;2023-11-19T14:41:47;98771.19;;;10.75;100.00
30554;BME280;17335;50.720;7.452;2023-11-19T14:44:14;98756.44;;;10.79;100.00